O'Brien, Oregon
Current Conditions -  °F | °C
As of 5:56 PM on Friday 24 Oct 2014 (Local Time) from KBOK Reporting Station
Broken Clouds Broken Clouds  
Wind Chill: 63°   Ceiling: 4000
Heat Index: 63°   Visibility: 8mi
Dew Point: 56°   Wind: 8mph
Humidity: 78%   Direction: 140°SE
Pressure: 29.72"   Gusts: NA
Location:  42.07°N, 123.71°W
Report Text: KBOK 250056Z AUTO 14007KT 8SM BKN040 17/13 A2972 RMK AO2 T01720133 BKN V SCT SLP065
Loading
Personal Weather Stations






























Interactive Weather Map New forecast layout! Learn more

10-Day Weather Forecast

Advertisements
Track Severe Weather on mobile